sensor_id;sensor_type;location;lat;lon;timestamp;temperature;humidity
64858;SHT30;51335;51.148;6.950;2022-10-16T00:00:29;12.40;99.99
64858;SHT30;51335;51.148;6.950;2022-10-16T00:01:13;12.38;99.99
64858;SHT30;51335;51.148;6.950;2022-10-16T00:01:44;12.38;99.99
64858;SHT30;51335;51.148;6.950;2022-10-16T00:02:14;12.38;99.99
64858;SHT30;51335;51.148;6.950;2022-10-16T00:02:44;12.40;99.99
64858;SHT30;51335;51.148;6.950;2022-10-16T00:03:14;12.41;99.99
64858;SHT30;51335;51.148;6.950;2022-10-16T00:03:46;12.44;99.99
64858;SHT30;51335;51.148;6.950;2022-10-16T00:04:16;12.42;99.99
64858;SHT30;51335;51.148;6.950;2022-10-16T00:04:47;12.41;99.99
64858;SHT30;51335;51.148;6.950;2022-10-16T00:05:17;12.41;99.99
64858;SHT30;51335;51.148;6.950;2022-10-16T00:05:47;12.36;99.99
64858;SHT30;51335;51.148;6.950;2022-10-16T00:06:19;12.36;99.99
64858;SHT30;51335;51.148;6.950;2022-10-16T00:06:50;12.36;99.99
64858;SHT30;51335;51.148;6.950;2022-10-16T00:07:20;12.34;99.99
64858;SHT30;51335;51.148;6.950;2022-10-16T00:07:50;12.44;99.99
64858;SHT30;51335;51.148;6.950;2022-10-16T00:08:20;12.44;99.99
64858;SHT30;51335;51.148;6.950;2022-10-16T00:08:51;12.44;99.99
64858;SHT30;51335;51.148;6.950;2022-10-16T00:09:21;12.42;99.99
64858;SHT30;51335;51.148;6.950;2022-10-16T00:09:51;12.40;99.99
64858;SHT30;51335;51.148;6.950;2022-10-16T00:10:22;12.38;99.99
64858;SHT30;51335;51.148;6.950;2022-10-16T00:10:52;12.38;99.99
64858;SHT30;51335;51.148;6.950;2022-10-16T00:11:25;12.33;99.99
64858;SHT30;51335;51.148;6.950;2022-10-16T00:11:55;12.33;99.99
64858;SHT30;51335;51.148;6.950;2022-10-16T00:12:26;12.33;99.99
64858;SHT30;51335;51.148;6.950;2022-10-16T00:12:56;12.31;99.99
64858;SHT30;51335;51.148;6.950;2022-10-16T00:13:26;12.29;99.99
64858;SHT30;51335;51.148;6.950;2022-10-16T00:13:59;12.26;99.99
64858;SHT30;51335;51.148;6.950;2022-10-16T00:14:30;12.26;99.99
64858;SHT30;51335;51.148;6.950;2022-10-16T00:15:00;12.24;99.99
64858;SHT30;51335;51.148;6.950;2022-10-16T00:15:33;12.24;99.99
64858;SHT30;51335;51.148;6.950;2022-10-16T00:16:04;12.26;99.99
64858;SHT30;51335;51.148;6.950;2022-10-16T00:16:35;12.23;99.99
64858;SHT30;51335;51.148;6.950;2022-10-16T00:17:05;12.20;99.99
64858;SHT30;51335;51.148;6.950;2022-10-16T00:17:35;12.20;99.99
64858;SHT30;51335;51.148;6.950;2022-10-16T00:18:06;12.17;99.99
64858;SHT30;51335;51.148;6.950;2022-10-16T00:18:36;12.17;99.99
64858;SHT30;51335;51.148;6.950;2022-10-16T00:19:07;12.16;99.99
64858;SHT30;51335;51.148;6.950;2022-10-16T00:19:37;12.14;99.99
64858;SHT30;51335;51.148;6.950;2022-10-16T00:20:07;12.16;99.99
64858;SHT30;51335;51.148;6.950;2022-10-16T00:20:38;12.14;99.99
64858;SHT30;51335;51.148;6.950;2022-10-16T00:21:14;12.14;99.99
64858;SHT30;51335;51.148;6.950;2022-10-16T00:21:44;12.14;99.99
64858;SHT30;51335;51.148;6.950;2022-10-16T00:22:15;12.10;99.99
64858;SHT30;51335;51.148;6.950;2022-10-16T00:22:45;12.12;99.99
64858;SHT30;51335;51.148;6.950;2022-10-16T00:23:15;12.13;99.99
64858;SHT30;51335;51.148;6.950;2022-10-16T00:23:46;12.10;99.99
64858;SHT30;51335;51.148;6.950;2022-10-16T00:24:16;12.12;99.99
64858;SHT30;51335;51.148;6.950;2022-10-16T00:24:46;12.09;99.99
64858;SHT30;51335;51.148;6.950;2022-10-16T00:25:17;12.06;99.99
64858;SHT30;51335;51.148;6.950;2022-10-16T00:25:58;12.07;99.99
64858;SHT30;51335;51.148;6.950;2022-10-16T00:26:30;12.07;99.99
64858;SHT30;51335;51.148;6.950;2022-10-16T00:27:01;12.07;99.99
64858;SHT30;51335;51.148;6.950;2022-10-16T00:27:31;12.04;99.99
64858;SHT30;51335;51.148;6.950;2022-10-16T00:28:01;12.04;99.99
64858;SHT30;51335;51.148;6.950;2022-10-16T00:28:32;12.03;99.99
64858;SHT30;51335;51.148;6.950;2022-10-16T00:29:03;12.03;99.99
64858;SHT30;51335;51.148;6.950;2022-10-16T00:29:33;12.02;99.99
64858;SHT30;51335;51.148;6.950;2022-10-16T00:30:04;12.00;99.99
64858;SHT30;51335;51.148;6.950;2022-10-16T00:30:38;12.02;99.99
64858;SHT30;51335;51.148;6.950;2022-10-16T00:31:11;12.00;99.99
64858;SHT30;51335;51.148;6.950;2022-10-16T00:31:42;11.97;99.99
64858;SHT30;51335;51.148;6.950;2022-10-16T00:32:12;11.99;99.99
64858;SHT30;51335;51.148;6.950;2022-10-16T00:32:42;11.97;99.99
64858;SHT30;51335;51.148;6.950;2022-10-16T00:33:12;11.97;99.99
64858;SHT30;51335;51.148;6.950;2022-10-16T00:33:43;11.94;99.99
64858;SHT30;51335;51.148;6.950;2022-10-16T00:34:13;11.96;99.99
64858;SHT30;51335;51.148;6.950;2022-10-16T00:34:44;11.94;99.99
64858;SHT30;51335;51.148;6.950;2022-10-16T00:35:14;11.94;99.99
64858;SHT30;51335;51.148;6.950;2022-10-16T00:35:45;11.92;99.99
64858;SHT30;51335;51.148;6.950;2022-10-16T00:36:18;11.96;99.99
64858;SHT30;51335;51.148;6.950;2022-10-16T00:36:49;11.93;99.99
64858;SHT30;51335;51.148;6.950;2022-10-16T00:37:19;11.94;99.99
64858;SHT30;51335;51.148;6.950;2022-10-16T00:37:49;11.94;99.99
64858;SHT30;51335;51.148;6.950;2022-10-16T00:38:19;11.96;99.99
64858;SHT30;51335;51.148;6.950;2022-10-16T00:38:54;11.94;99.99
64858;SHT30;51335;51.148;6.950;2022-10-16T00:39:24;11.90;99.99
64858;SHT30;51335;51.148;6.950;2022-10-16T00:39:54;11.90;99.99
64858;SHT30;51335;51.148;6.950;2022-10-16T00:40:25;11.93;99.99
64858;SHT30;51335;51.148;6.950;2022-10-16T00:40:55;11.92;99.99
64858;SHT30;51335;51.148;6.950;2022-10-16T00:41:27;11.89;99.99
64858;SHT30;51335;51.148;6.950;2022-10-16T00:41:58;11.92;99.99
64858;SHT30;51335;51.148;6.950;2022-10-16T00:42:28;11.94;99.99
64858;SHT30;51335;51.148;6.950;2022-10-16T00:42:58;11.92;99.99
64858;SHT30;51335;51.148;6.950;2022-10-16T00:44:51;11.93;99.99
64858;SHT30;51335;51.148;6.950;2022-10-16T00:45:22;11.90;99.99
64858;SHT30;51335;51.148;6.950;2022-10-16T00:45:52;11.86;99.99
64858;SHT30;51335;51.148;6.950;2022-10-16T00:46:57;11.86;99.99
64858;SHT30;51335;51.148;6.950;2022-10-16T00:47:30;11.83;99.99
64858;SHT30;51335;51.148;6.950;2022-10-16T00:48:02;11.83;99.99
64858;SHT30;51335;51.148;6.950;2022-10-16T00:48:32;11.85;99.99
64858;SHT30;51335;51.148;6.950;2022-10-16T00:49:07;11.83;99.99
64858;SHT30;51335;51.148;6.950;2022-10-16T00:49:38;11.81;99.99
64858;SHT30;51335;51.148;6.950;2022-10-16T00:50:09;11.81;99.99
64858;SHT30;51335;51.148;6.950;2022-10-16T00:50:41;11.79;99.99
64858;SHT30;51335;51.148;6.950;2022-10-16T00:51:11;11.81;99.99
64858;SHT30;51335;51.148;6.950;2022-10-16T00:51:50;11.82;99.99
64858;SHT30;51335;51.148;6.950;2022-10-16T00:52:22;11.79;99.99
64858;SHT30;51335;51.148;6.950;2022-10-16T00:52:53;11.81;99.99
64858;SHT30;51335;51.148;6.950;2022-10-16T00:53:24;11.81;99.99
64858;SHT30;51335;51.148;6.950;2022-10-16T00:53:55;11.81;99.99
64858;SHT30;51335;51.148;6.950;2022-10-16T00:54:29;11.83;99.99
64858;SHT30;51335;51.148;6.950;2022-10-16T00:55:01;11.81;99.99
64858;SHT30;51335;51.148;6.950;2022-10-16T00:55:32;11.82;99.99
64858;SHT30;51335;51.148;6.950;2022-10-16T00:56:03;11.82;99.99
64858;SHT30;51335;51.148;6.950;2022-10-16T00:56:33;11.81;99.99
64858;SHT30;51335;51.148;6.950;2022-10-16T00:57:05;11.83;99.99
64858;SHT30;51335;51.148;6.950;2022-10-16T00:57:37;11.79;99.99
64858;SHT30;51335;51.148;6.950;2022-10-16T00:58:07;11.81;99.99
64858;SHT30;51335;51.148;6.950;2022-10-16T00:58:38;11.81;99.99
64858;SHT30;51335;51.148;6.950;2022-10-16T00:59:29;11.79;99.99
64858;SHT30;51335;51.148;6.950;2022-10-16T01:00:03;11.79;99.99
64858;SHT30;51335;51.148;6.950;2022-10-16T01:00:34;11.78;99.99
64858;SHT30;51335;51.148;6.950;2022-10-16T01:01:04;11.81;99.99
64858;SHT30;51335;51.148;6.950;2022-10-16T01:01:34;11.76;99.99
64858;SHT30;51335;51.148;6.950;2022-10-16T01:02:09;11.76;99.99
64858;SHT30;51335;51.148;6.950;2022-10-16T01:02:39;11.76;99.99
64858;SHT30;51335;51.148;6.950;2022-10-16T01:03:42;11.76;99.99
64858;SHT30;51335;51.148;6.950;2022-10-16T01:04:12;11.73;99.99
64858;SHT30;51335;51.148;6.950;2022-10-16T01:04:47;11.73;99.99
64858;SHT30;51335;51.148;6.950;2022-10-16T01:05:18;11.75;99.99
64858;SHT30;51335;51.148;6.950;2022-10-16T01:06:57;11.72;99.99
64858;SHT30;51335;51.148;6.950;2022-10-16T01:07:56;11.75;99.99
64858;SHT30;51335;51.148;6.950;2022-10-16T01:11:01;11.69;99.99
64858;SHT30;51335;51.148;6.950;2022-10-16T01:11:38;11.69;99.99
64858;SHT30;51335;51.148;6.950;2022-10-16T01:12:41;11.69;99.99
64858;SHT30;51335;51.148;6.950;2022-10-16T01:13:19;11.66;99.99
64858;SHT30;51335;51.148;6.950;2022-10-16T01:13:55;11.69;99.99
64858;SHT30;51335;51.148;6.950;2022-10-16T01:15:14;11.69;99.99
64858;SHT30;51335;51.148;6.950;2022-10-16T01:15:51;11.69;99.99
64858;SHT30;51335;51.148;6.950;2022-10-16T01:16:51;11.69;99.99
64858;SHT30;51335;51.148;6.950;2022-10-16T01:17:29;11.71;99.99
64858;SHT30;51335;51.148;6.950;2022-10-16T01:18:44;11.71;99.99
64858;SHT30;51335;51.148;6.950;2022-10-16T01:20:22;11.71;99.99
64858;SHT30;51335;51.148;6.950;2022-10-16T01:21:08;11.68;99.99
64858;SHT30;51335;51.148;6.950;2022-10-16T01:21:42;11.73;99.99
64858;SHT30;51335;51.148;6.950;2022-10-16T01:22:13;11.73;99.99
64858;SHT30;51335;51.148;6.950;2022-10-16T01:22:56;11.73;99.99
64858;SHT30;51335;51.148;6.950;2022-10-16T01:24:48;11.69;99.99
64858;SHT30;51335;51.148;6.950;2022-10-16T01:25:33;11.64;99.99
64858;SHT30;51335;51.148;6.950;2022-10-16T01:27:23;11.61;99.99
64858;SHT30;51335;51.148;6.950;2022-10-16T01:27:56;11.61;99.99
64858;SHT30;51335;51.148;6.950;2022-10-16T01:28:35;11.58;99.99
64858;SHT30;51335;51.148;6.950;2022-10-16T01:30:30;11.57;99.99
64858;SHT30;51335;51.148;6.950;2022-10-16T01:31:02;11.58;99.99
64858;SHT30;51335;51.148;6.950;2022-10-16T01:31:36;11.57;99.99
64858;SHT30;51335;51.148;6.950;2022-10-16T01:33:22;11.54;99.99
64858;SHT30;51335;51.148;6.950;2022-10-16T01:34:32;11.51;99.99
64858;SHT30;51335;51.148;6.950;2022-10-16T01:35:10;11.52;99.99
64858;SHT30;51335;51.148;6.950;2022-10-16T01:35:44;11.51;99.99
64858;SHT30;51335;51.148;6.950;2022-10-16T01:36:21;11.54;99.99
64858;SHT30;51335;51.148;6.950;2022-10-16T01:36:55;11.51;99.99
64858;SHT30;51335;51.148;6.950;2022-10-16T01:37:40;11.54;99.99
64858;SHT30;51335;51.148;6.950;2022-10-16T01:38:20;11.52;99.99
64858;SHT30;51335;51.148;6.950;2022-10-16T01:38:52;11.58;99.99
64858;SHT30;51335;51.148;6.950;2022-10-16T01:39:30;11.54;99.99
64858;SHT30;51335;51.148;6.950;2022-10-16T01:40:06;11.59;99.99
64858;SHT30;51335;51.148;6.950;2022-10-16T01:40:40;11.59;99.99
64858;SHT30;51335;51.148;6.950;2022-10-16T01:41:17;11.64;99.99
64858;SHT30;51335;51.148;6.950;2022-10-16T01:41:54;11.62;99.99
64858;SHT30;51335;51.148;6.950;2022-10-16T01:42:30;11.61;99.99
64858;SHT30;51335;51.148;6.950;2022-10-16T01:43:25;11.61;99.99
64858;SHT30;51335;51.148;6.950;2022-10-16T01:44:22;11.59;99.99
64858;SHT30;51335;51.148;6.950;2022-10-16T01:44:52;11.55;99.99
64858;SHT30;51335;51.148;6.950;2022-10-16T01:45:23;11.55;99.99
64858;SHT30;51335;51.148;6.950;2022-10-16T01:45:53;11.54;99.99
64858;SHT30;51335;51.148;6.950;2022-10-16T01:46:26;11.52;99.99
64858;SHT30;51335;51.148;6.950;2022-10-16T01:46:56;11.54;99.99
64858;SHT30;51335;51.148;6.950;2022-10-16T01:47:29;11.50;99.99
64858;SHT30;51335;51.148;6.950;2022-10-16T01:48:02;11.52;99.99
64858;SHT30;51335;51.148;6.950;2022-10-16T01:48:34;11.51;99.99
64858;SHT30;51335;51.148;6.950;2022-10-16T01:49:06;11.52;99.99
64858;SHT30;51335;51.148;6.950;2022-10-16T01:49:40;11.55;99.99
64858;SHT30;51335;51.148;6.950;2022-10-16T01:50:12;11.54;99.99
64858;SHT30;51335;51.148;6.950;2022-10-16T01:50:51;11.57;99.99
64858;SHT30;51335;51.148;6.950;2022-10-16T01:51:23;11.55;99.99
64858;SHT30;51335;51.148;6.950;2022-10-16T01:51:56;11.58;99.99
64858;SHT30;51335;51.148;6.950;2022-10-16T01:52:28;11.58;99.99
64858;SHT30;51335;51.148;6.950;2022-10-16T01:53:02;11.57;99.99
64858;SHT30;51335;51.148;6.950;2022-10-16T01:53:33;11.58;99.99
64858;SHT30;51335;51.148;6.950;2022-10-16T01:54:07;11.58;99.99
64858;SHT30;51335;51.148;6.950;2022-10-16T01:54:40;11.61;99.99
64858;SHT30;51335;51.148;6.950;2022-10-16T01:55:15;11.64;99.99
64858;SHT30;51335;51.148;6.950;2022-10-16T01:55:47;11.62;99.99
64858;SHT30;51335;51.148;6.950;2022-10-16T01:56:20;11.66;99.99
64858;SHT30;51335;51.148;6.950;2022-10-16T01:56:51;11.68;99.99
64858;SHT30;51335;51.148;6.950;2022-10-16T01:57:24;11.65;99.99
64858;SHT30;51335;51.148;6.950;2022-10-16T01:57:57;11.69;99.99
64858;SHT30;51335;51.148;6.950;2022-10-16T01:58:30;11.69;99.99
64858;SHT30;51335;51.148;6.950;2022-10-16T01:59:08;11.69;99.99
64858;SHT30;51335;51.148;6.950;2022-10-16T01:59:44;11.66;99.99
64858;SHT30;51335;51.148;6.950;2022-10-16T02:00:17;11.68;99.99
64858;SHT30;51335;51.148;6.950;2022-10-16T02:00:49;11.69;99.99
64858;SHT30;51335;51.148;6.950;2022-10-16T02:01:23;11.66;99.99
64858;SHT30;51335;51.148;6.950;2022-10-16T02:02:01;11.66;99.99
64858;SHT30;51335;51.148;6.950;2022-10-16T02:02:34;11.68;99.99
64858;SHT30;51335;51.148;6.950;2022-10-16T02:03:05;11.71;99.99
64858;SHT30;51335;51.148;6.950;2022-10-16T02:03:37;11.71;99.99
64858;SHT30;51335;51.148;6.950;2022-10-16T02:04:15;11.78;99.99
64858;SHT30;51335;51.148;6.950;2022-10-16T02:04:51;11.82;99.99
64858;SHT30;51335;51.148;6.950;2022-10-16T02:05:34;11.81;99.99
64858;SHT30;51335;51.148;6.950;2022-10-16T02:06:07;11.79;99.99
64858;SHT30;51335;51.148;6.950;2022-10-16T02:06:38;11.81;99.99
64858;SHT30;51335;51.148;6.950;2022-10-16T02:07:08;11.81;99.99
64858;SHT30;51335;51.148;6.950;2022-10-16T02:07:38;11.79;99.99
64858;SHT30;51335;51.148;6.950;2022-10-16T02:08:09;11.83;99.99
64858;SHT30;51335;51.148;6.950;2022-10-16T02:08:39;11.83;99.99
64858;SHT30;51335;51.148;6.950;2022-10-16T02:09:10;11.83;99.99
64858;SHT30;51335;51.148;6.950;2022-10-16T02:09:40;11.82;99.99
64858;SHT30;51335;51.148;6.950;2022-10-16T02:10:11;11.81;99.99
64858;SHT30;51335;51.148;6.950;2022-10-16T02:10:41;11.81;99.99
64858;SHT30;51335;51.148;6.950;2022-10-16T02:11:12;11.81;99.99
64858;SHT30;51335;51.148;6.950;2022-10-16T02:11:43;11.82;99.99
64858;SHT30;51335;51.148;6.950;2022-10-16T02:12:18;11.83;99.99
64858;SHT30;51335;51.148;6.950;2022-10-16T02:13:02;11.86;99.99
64858;SHT30;51335;51.148;6.950;2022-10-16T02:13:38;11.86;99.99
64858;SHT30;51335;51.148;6.950;2022-10-16T02:14:09;11.90;99.99
64858;SHT30;51335;51.148;6.950;2022-10-16T02:14:40;11.89;99.99
64858;SHT30;51335;51.148;6.950;2022-10-16T02:15:11;11.87;99.99
64858;SHT30;51335;51.148;6.950;2022-10-16T02:15:41;11.86;99.99
64858;SHT30;51335;51.148;6.950;2022-10-16T02:16:12;11.87;99.99
64858;SHT30;51335;51.148;6.950;2022-10-16T02:16:45;11.90;99.99
64858;SHT30;51335;51.148;6.950;2022-10-16T02:17:20;11.90;99.99
64858;SHT30;51335;51.148;6.950;2022-10-16T02:17:50;11.87;99.99
64858;SHT30;51335;51.148;6.950;2022-10-16T02:18:21;11.90;99.99
64858;SHT30;51335;51.148;6.950;2022-10-16T02:18:51;11.93;99.99
64858;SHT30;51335;51.148;6.950;2022-10-16T02:19:22;11.93;99.99
64858;SHT30;51335;51.148;6.950;2022-10-16T02:19:54;11.97;99.99
64858;SHT30;51335;51.148;6.950;2022-10-16T02:20:27;11.97;99.99
64858;SHT30;51335;51.148;6.950;2022-10-16T02:21:43;12.02;99.99
64858;SHT30;51335;51.148;6.950;2022-10-16T02:22:32;12.02;99.99
64858;SHT30;51335;51.148;6.950;2022-10-16T02:23:04;12.03;99.99
64858;SHT30;51335;51.148;6.950;2022-10-16T02:23:42;12.07;99.99
64858;SHT30;51335;51.148;6.950;2022-10-16T02:25:40;12.07;99.99
64858;SHT30;51335;51.148;6.950;2022-10-16T02:26:14;12.13;99.99
64858;SHT30;51335;51.148;6.950;2022-10-16T02:27:54;12.13;99.99
64858;SHT30;51335;51.148;6.950;2022-10-16T02:28:31;12.16;99.99
64858;SHT30;51335;51.148;6.950;2022-10-16T02:29:08;12.17;99.99
64858;SHT30;51335;51.148;6.950;2022-10-16T02:29:45;12.17;99.99
64858;SHT30;51335;51.148;6.950;2022-10-16T02:30:56;12.23;99.99
64858;SHT30;51335;51.148;6.950;2022-10-16T02:31:29;12.24;99.99
64858;SHT30;51335;51.148;6.950;2022-10-16T02:32:04;12.23;99.99
64858;SHT30;51335;51.148;6.950;2022-10-16T02:32:37;12.27;99.99
64858;SHT30;51335;51.148;6.950;2022-10-16T02:33:10;12.29;99.99
64858;SHT30;51335;51.148;6.950;2022-10-16T02:33:42;12.29;99.99
64858;SHT30;51335;51.148;6.950;2022-10-16T02:34:14;12.27;99.99
64858;SHT30;51335;51.148;6.950;2022-10-16T02:34:48;12.26;99.99
64858;SHT30;51335;51.148;6.950;2022-10-16T02:35:21;12.31;99.99
64858;SHT30;51335;51.148;6.950;2022-10-16T02:35:52;12.31;99.99
64858;SHT30;51335;51.148;6.950;2022-10-16T02:36:23;12.31;99.99
64858;SHT30;51335;51.148;6.950;2022-10-16T02:36:54;12.31;99.99
64858;SHT30;51335;51.148;6.950;2022-10-16T02:37:27;12.34;99.99
64858;SHT30;51335;51.148;6.950;2022-10-16T02:37:58;12.31;99.99
64858;SHT30;51335;51.148;6.950;2022-10-16T02:38:30;12.33;99.99
64858;SHT30;51335;51.148;6.950;2022-10-16T02:39:00;12.33;99.99
64858;SHT30;51335;51.148;6.950;2022-10-16T02:39:31;12.33;99.99
64858;SHT30;51335;51.148;6.950;2022-10-16T02:40:02;12.33;99.99
64858;SHT30;51335;51.148;6.950;2022-10-16T02:40:33;12.36;99.99
64858;SHT30;51335;51.148;6.950;2022-10-16T02:41:04;12.34;99.99
64858;SHT30;51335;51.148;6.950;2022-10-16T02:41:34;12.36;99.99
64858;SHT30;51335;51.148;6.950;2022-10-16T02:42:12;12.36;99.99
64858;SHT30;51335;51.148;6.950;2022-10-16T02:42:42;12.40;99.99
64858;SHT30;51335;51.148;6.950;2022-10-16T02:43:13;12.42;99.99
64858;SHT30;51335;51.148;6.950;2022-10-16T02:43:43;12.42;99.99
64858;SHT30;51335;51.148;6.950;2022-10-16T02:44:13;12.44;99.99
64858;SHT30;51335;51.148;6.950;2022-10-16T02:44:44;12.44;99.99
64858;SHT30;51335;51.148;6.950;2022-10-16T02:45:14;12.42;99.99
64858;SHT30;51335;51.148;6.950;2022-10-16T02:45:44;12.44;99.99
64858;SHT30;51335;51.148;6.950;2022-10-16T02:46:15;12.44;99.99
64858;SHT30;51335;51.148;6.950;2022-10-16T02:46:46;12.45;99.99
64858;SHT30;51335;51.148;6.950;2022-10-16T02:47:17;12.44;99.99
64858;SHT30;51335;51.148;6.950;2022-10-16T02:47:47;12.41;99.99
64858;SHT30;51335;51.148;6.950;2022-10-16T02:48:18;12.42;99.99
64858;SHT30;51335;51.148;6.950;2022-10-16T02:48:48;12.41;99.99
64858;SHT30;51335;51.148;6.950;2022-10-16T02:49:18;12.41;99.99
64858;SHT30;51335;51.148;6.950;2022-10-16T02:49:49;12.40;99.99
64858;SHT30;51335;51.148;6.950;2022-10-16T02:50:19;12.40;99.99
64858;SHT30;51335;51.148;6.950;2022-10-16T02:50:49;12.41;99.99
64858;SHT30;51335;51.148;6.950;2022-10-16T02:51:19;12.42;99.99
64858;SHT30;51335;51.148;6.950;2022-10-16T02:51:50;12.44;99.99
64858;SHT30;51335;51.148;6.950;2022-10-16T02:52:20;12.41;99.99
64858;SHT30;51335;51.148;6.950;2022-10-16T02:52:50;12.42;99.99
64858;SHT30;51335;51.148;6.950;2022-10-16T02:53:21;12.41;99.99
64858;SHT30;51335;51.148;6.950;2022-10-16T02:53:51;12.40;99.99
64858;SHT30;51335;51.148;6.950;2022-10-16T02:54:21;12.40;99.99
64858;SHT30;51335;51.148;6.950;2022-10-16T02:54:52;12.40;99.99
64858;SHT30;51335;51.148;6.950;2022-10-16T02:55:22;12.37;99.99
64858;SHT30;51335;51.148;6.950;2022-10-16T02:55:52;12.40;99.99
64858;SHT30;51335;51.148;6.950;2022-10-16T02:56:22;12.41;99.99
64858;SHT30;51335;51.148;6.950;2022-10-16T02:56:53;12.42;99.99
64858;SHT30;51335;51.148;6.950;2022-10-16T02:57:23;12.40;99.99
64858;SHT30;51335;51.148;6.950;2022-10-16T02:57:54;12.40;99.99
64858;SHT30;51335;51.148;6.950;2022-10-16T02:58:24;12.51;99.99
64858;SHT30;51335;51.148;6.950;2022-10-16T02:58:54;12.52;99.99
64858;SHT30;51335;51.148;6.950;2022-10-16T02:59:24;12.55;99.99
64858;SHT30;51335;51.148;6.950;2022-10-16T02:59:55;12.52;99.99
64858;SHT30;51335;51.148;6.950;2022-10-16T03:00:25;12.54;99.99
64858;SHT30;51335;51.148;6.950;2022-10-16T03:00:55;12.54;99.99
64858;SHT30;51335;51.148;6.950;2022-10-16T03:01:26;12.52;99.99
64858;SHT30;51335;51.148;6.950;2022-10-16T03:01:56;12.52;99.99
64858;SHT30;51335;51.148;6.950;2022-10-16T03:02:26;12.48;99.99
64858;SHT30;51335;51.148;6.950;2022-10-16T03:02:56;12.52;99.99
64858;SHT30;51335;51.148;6.950;2022-10-16T03:03:27;12.51;99.99
64858;SHT30;51335;51.148;6.950;2022-10-16T03:03:57;12.50;99.99
64858;SHT30;51335;51.148;6.950;2022-10-16T03:04:27;12.52;99.99
64858;SHT30;51335;51.148;6.950;2022-10-16T03:04:57;12.51;99.99
64858;SHT30;51335;51.148;6.950;2022-10-16T03:05:28;12.51;99.99
64858;SHT30;51335;51.148;6.950;2022-10-16T03:05:58;12.52;99.99
64858;SHT30;51335;51.148;6.950;2022-10-16T03:06:28;12.52;99.99
64858;SHT30;51335;51.148;6.950;2022-10-16T03:06:58;12.52;99.99
64858;SHT30;51335;51.148;6.950;2022-10-16T03:07:29;12.54;99.99
64858;SHT30;51335;51.148;6.950;2022-10-16T03:07:59;12.52;99.99
64858;SHT30;51335;51.148;6.950;2022-10-16T03:08:29;12.52;99.99
64858;SHT30;51335;51.148;6.950;2022-10-16T03:09:00;12.54;99.99
64858;SHT30;51335;51.148;6.950;2022-10-16T03:09:30;12.54;99.99
64858;SHT30;51335;51.148;6.950;2022-10-16T03:10:00;12.57;99.99
64858;SHT30;51335;51.148;6.950;2022-10-16T03:10:31;12.58;99.99
64858;SHT30;51335;51.148;6.950;2022-10-16T03:11:01;12.57;99.99
64858;SHT30;51335;51.148;6.950;2022-10-16T03:11:31;12.55;99.99
64858;SHT30;51335;51.148;6.950;2022-10-16T03:12:02;12.54;99.99
64858;SHT30;51335;51.148;6.950;2022-10-16T03:12:32;12.52;99.99
64858;SHT30;51335;51.148;6.950;2022-10-16T03:13:02;12.52;99.99
64858;SHT30;51335;51.148;6.950;2022-10-16T03:13:33;12.54;99.99
64858;SHT30;51335;51.148;6.950;2022-10-16T03:14:03;12.55;99.99
64858;SHT30;51335;51.148;6.950;2022-10-16T03:14:34;12.58;99.99
64858;SHT30;51335;51.148;6.950;2022-10-16T03:15:05;12.54;99.99
64858;SHT30;51335;51.148;6.950;2022-10-16T03:15:35;12.55;99.99
64858;SHT30;51335;51.148;6.950;2022-10-16T03:16:05;12.55;99.99
64858;SHT30;51335;51.148;6.950;2022-10-16T03:16:36;12.50;99.99
64858;SHT30;51335;51.148;6.950;2022-10-16T03:17:06;12.47;99.99
64858;SHT30;51335;51.148;6.950;2022-10-16T03:17:36;12.50;99.99
64858;SHT30;51335;51.148;6.950;2022-10-16T03:18:07;12.47;99.99
64858;SHT30;51335;51.148;6.950;2022-10-16T03:18:37;12.45;99.99
64858;SHT30;51335;51.148;6.950;2022-10-16T03:19:07;12.47;99.99
64858;SHT30;51335;51.148;6.950;2022-10-16T03:19:37;12.50;99.99
64858;SHT30;51335;51.148;6.950;2022-10-16T03:20:08;12.45;99.99
64858;SHT30;51335;51.148;6.950;2022-10-16T03:20:38;12.42;99.99
64858;SHT30;51335;51.148;6.950;2022-10-16T03:21:08;12.40;99.99
64858;SHT30;51335;51.148;6.950;2022-10-16T03:21:39;12.38;99.99
64858;SHT30;51335;51.148;6.950;2022-10-16T03:22:09;12.37;99.99
64858;SHT30;51335;51.148;6.950;2022-10-16T03:22:39;12.36;99.99
64858;SHT30;51335;51.148;6.950;2022-10-16T03:23:10;12.33;99.99
64858;SHT30;51335;51.148;6.950;2022-10-16T03:23:40;12.30;99.99
64858;SHT30;51335;51.148;6.950;2022-10-16T03:24:10;12.31;99.99
64858;SHT30;51335;51.148;6.950;2022-10-16T03:24:40;12.33;99.99
64858;SHT30;51335;51.148;6.950;2022-10-16T03:25:11;12.33;99.99
64858;SHT30;51335;51.148;6.950;2022-10-16T03:25:41;12.31;99.99
64858;SHT30;51335;51.148;6.950;2022-10-16T03:26:11;12.33;99.99
64858;SHT30;51335;51.148;6.950;2022-10-16T03:26:42;12.30;99.99
64858;SHT30;51335;51.148;6.950;2022-10-16T03:27:12;12.29;99.99
64858;SHT30;51335;51.148;6.950;2022-10-16T03:27:42;12.29;99.99
64858;SHT30;51335;51.148;6.950;2022-10-16T03:28:12;12.29;99.99
64858;SHT30;51335;51.148;6.950;2022-10-16T03:28:43;12.27;99.99
64858;SHT30;51335;51.148;6.950;2022-10-16T03:29:13;12.27;99.99
64858;SHT30;51335;51.148;6.950;2022-10-16T03:29:43;12.26;99.99
64858;SHT30;51335;51.148;6.950;2022-10-16T03:30:13;12.24;99.99
64858;SHT30;51335;51.148;6.950;2022-10-16T03:30:44;12.23;99.99
64858;SHT30;51335;51.148;6.950;2022-10-16T03:31:14;12.24;99.99
64858;SHT30;51335;51.148;6.950;2022-10-16T03:31:44;12.23;99.99
64858;SHT30;51335;51.148;6.950;2022-10-16T03:32:15;12.22;99.99
64858;SHT30;51335;51.148;6.950;2022-10-16T03:32:45;12.22;99.99
64858;SHT30;51335;51.148;6.950;2022-10-16T03:33:15;12.22;99.99
64858;SHT30;51335;51.148;6.950;2022-10-16T03:33:45;12.20;99.99
64858;SHT30;51335;51.148;6.950;2022-10-16T03:34:16;12.20;99.99
64858;SHT30;51335;51.148;6.950;2022-10-16T03:34:46;12.20;99.99
64858;SHT30;51335;51.148;6.950;2022-10-16T03:35:16;12.24;99.99
64858;SHT30;51335;51.148;6.950;2022-10-16T03:35:53;12.24;99.99
64858;SHT30;51335;51.148;6.950;2022-10-16T03:36:24;12.23;99.99
64858;SHT30;51335;51.148;6.950;2022-10-16T03:36:54;12.22;99.99
64858;SHT30;51335;51.148;6.950;2022-10-16T03:37:25;12.20;99.99
64858;SHT30;51335;51.148;6.950;2022-10-16T03:37:55;12.26;99.99
64858;SHT30;51335;51.148;6.950;2022-10-16T03:38:25;12.22;99.99
64858;SHT30;51335;51.148;6.950;2022-10-16T03:38:55;12.26;99.99
64858;SHT30;51335;51.148;6.950;2022-10-16T03:39:26;12.26;99.99
64858;SHT30;51335;51.148;6.950;2022-10-16T03:39:56;12.26;99.99
64858;SHT30;51335;51.148;6.950;2022-10-16T03:40:27;12.23;99.99
64858;SHT30;51335;51.148;6.950;2022-10-16T03:40:57;12.24;99.99
64858;SHT30;51335;51.148;6.950;2022-10-16T03:41:27;12.23;99.99
64858;SHT30;51335;51.148;6.950;2022-10-16T03:41:57;12.23;99.99
64858;SHT30;51335;51.148;6.950;2022-10-16T03:42:28;12.23;99.99